createdAt,value
2022-12-04T00:02:50.079Z,57.53
2022-12-04T00:06:57.122Z,57.74
2022-12-04T00:10:58.862Z,58.37
2022-12-04T00:19:19.287Z,57.93
2022-12-04T00:23:22.285Z,58.13
2022-12-04T00:27:22.476Z,58.89
2022-12-04T00:31:27.704Z,58.89
2022-12-04T00:35:29.280Z,58.46
2022-12-04T00:39:31.974Z,58.48
2022-12-04T00:43:33.916Z,58.24
2022-12-04T00:47:34.050Z,58.12
2022-12-04T00:51:34.289Z,57.84
2022-12-04T00:55:37.143Z,57.90
2022-12-04T00:59:37.285Z,57.87
2022-12-04T01:03:38.159Z,57.67
2022-12-04T01:07:38.499Z,57.47
2022-12-04T01:11:41.270Z,57.99
2022-12-04T01:15:44.045Z,56.99
2022-12-04T01:19:44.257Z,57.57
2022-12-04T01:23:45.171Z,57.48
2022-12-04T01:27:48.138Z,57.95
2022-12-04T01:31:48.295Z,58.05
2022-12-04T01:35:56.511Z,58.38
2022-12-04T01:39:56.808Z,58.18
2022-12-04T01:44:16.666Z,57.83
2022-12-04T01:48:28.275Z,57.25
2022-12-04T01:52:29.770Z,57.76
2022-12-04T01:56:39.472Z,58.17
2022-12-04T02:00:42.591Z,58.04
2022-12-04T02:04:45.318Z,57.67
2022-12-04T02:08:45.632Z,57.49
2022-12-04T02:12:54.283Z,57.43
2022-12-04T02:17:10.090Z,57.37
2022-12-04T02:21:19.295Z,57.83
2022-12-04T02:25:32.522Z,58.78
2022-12-04T02:29:49.659Z,58.51
2022-12-04T02:33:57.793Z,58.82
2022-12-04T02:38:06.625Z,58.79
2022-12-04T02:42:17.726Z,58.43
2022-12-04T02:46:27.760Z,58.55
2022-12-04T02:50:29.760Z,58.39
2022-12-04T02:54:39.333Z,57.99
2022-12-04T02:58:47.432Z,58.30
2022-12-04T03:02:58.377Z,58.60
2022-12-04T03:07:05.115Z,58.51
2022-12-04T03:11:06.333Z,58.95
2022-12-04T03:15:12.852Z,58.19
2022-12-04T03:19:22.768Z,57.68
2022-12-04T03:23:32.893Z,57.94
2022-12-04T03:27:44.759Z,57.40
2022-12-04T03:31:53.416Z,57.79
2022-12-04T03:36:02.888Z,57.45
2022-12-04T03:40:13.729Z,57.36
2022-12-04T03:44:22.735Z,57.12
2022-12-04T03:48:31.545Z,57.21
2022-12-04T03:52:45.110Z,57.35
2022-12-04T03:56:51.971Z,57.64
2022-12-04T04:00:56.552Z,57.10
2022-12-04T04:05:01.666Z,57.33
2022-12-04T04:09:12.382Z,57.60
2022-12-04T04:13:38.995Z,57.31
2022-12-04T04:18:04.047Z,57.12
2022-12-04T04:22:23.834Z,56.80
2022-12-04T04:26:29.697Z,57.00
2022-12-04T04:30:34.647Z,57.35
2022-12-04T04:34:48.808Z,57.91
2022-12-04T04:39:00.583Z,58.05
2022-12-04T04:43:12.340Z,58.50
2022-12-04T04:47:21.630Z,58.39
2022-12-04T04:51:22.879Z,58.59
2022-12-04T04:55:25.070Z,58.32
2022-12-04T04:59:27.778Z,57.85
2022-12-04T05:03:28.202Z,57.49
2022-12-04T05:07:28.317Z,57.81
2022-12-04T05:11:28.552Z,57.73
2022-12-04T05:15:31.310Z,57.47
2022-12-04T05:19:48.176Z,57.54
2022-12-04T05:23:48.584Z,58.52
2022-12-04T05:27:48.730Z,58.31
2022-12-04T05:31:51.479Z,57.34
2022-12-04T05:36:00.493Z,57.23
2022-12-04T05:40:00.660Z,57.71
2022-12-04T05:44:00.772Z,58.24
2022-12-04T05:48:04.882Z,58.21
2022-12-04T05:52:06.876Z,58.20
2022-12-04T05:56:08.953Z,57.89
2022-12-04T06:00:11.639Z,58.92
2022-12-04T06:04:15.232Z,58.29
2022-12-04T06:08:15.445Z,57.46
2022-12-04T06:12:15.603Z,57.39
2022-12-04T06:16:18.221Z,58.19
2022-12-04T06:20:21.434Z,58.28
2022-12-04T06:24:24.558Z,57.61
2022-12-04T06:28:24.655Z,57.61
2022-12-04T06:32:24.824Z,57.49
2022-12-04T06:36:28.182Z,58.16
2022-12-04T06:40:28.273Z,58.64
2022-12-04T06:44:28.414Z,57.87
2022-12-04T06:48:29.402Z,58.40
2022-12-04T06:52:32.140Z,58.07
2022-12-04T06:56:35.035Z,57.71
2022-12-04T07:00:35.303Z,58.45
2022-12-04T07:04:35.584Z,58.52
2022-12-04T07:08:38.416Z,57.98
2022-12-04T07:12:38.477Z,57.77
2022-12-04T07:16:41.483Z,58.23
2022-12-04T07:20:43.543Z,57.86
2022-12-04T07:24:46.370Z,58.18
2022-12-04T07:28:47.292Z,57.50
2022-12-04T07:32:47.373Z,58.43
2022-12-04T07:36:47.431Z,58.93
2022-12-04T07:40:50.095Z,58.30
2022-12-04T07:44:50.321Z,58.39
2022-12-04T07:48:50.486Z,57.96
2022-12-04T07:52:50.663Z,58.30
2022-12-04T07:56:53.314Z,57.47
2022-12-04T08:00:53.489Z,58.24
2022-12-04T08:04:53.882Z,58.04
2022-12-04T08:08:55.548Z,57.43
2022-12-04T08:12:58.207Z,57.53
2022-12-04T08:16:58.426Z,57.16
2022-12-04T08:21:05.744Z,56.99
2022-12-04T08:25:05.970Z,56.82
2022-12-04T08:29:09.137Z,57.77
2022-12-04T08:33:09.315Z,56.46
2022-12-04T08:37:10.350Z,56.64
2022-12-04T08:41:15.155Z,56.63
2022-12-04T08:45:18.050Z,55.20
2022-12-04T08:49:18.228Z,56.50
2022-12-04T08:53:18.343Z,56.63
2022-12-04T08:57:18.451Z,56.79
2022-12-04T09:01:23.998Z,56.22
2022-12-04T09:05:24.212Z,56.39
2022-12-04T09:09:24.371Z,55.98
2022-12-04T09:13:24.622Z,55.88
2022-12-04T09:17:27.290Z,55.92
2022-12-04T09:21:28.346Z,57.12
2022-12-04T09:25:28.465Z,57.02
2022-12-04T09:29:28.959Z,55.95
2022-12-04T09:33:32.735Z,57.58
2022-12-04T09:37:32.857Z,56.33
2022-12-04T09:42:26.730Z,56.61
2022-12-04T09:46:34.135Z,56.54
2022-12-04T09:50:43.610Z,56.32
2022-12-04T09:54:46.606Z,56.93
2022-12-04T09:58:53.988Z,55.76
2022-12-04T10:03:02.062Z,55.83
2022-12-04T10:07:15.795Z,56.21
2022-12-04T10:11:27.686Z,55.40
2022-12-04T10:15:43.847Z,55.12
2022-12-04T10:19:59.388Z,54.52
2022-12-04T10:24:31.150Z,54.58
2022-12-04T10:28:40.211Z,54.61
2022-12-04T10:32:43.349Z,55.25
2022-12-04T10:36:50.956Z,54.65
2022-12-04T10:41:03.876Z,54.23
2022-12-04T10:50:33.896Z,54.02
2022-12-04T10:55:30.795Z,54.08
2022-12-04T11:00:55.222Z,53.40
2022-12-04T11:06:23.253Z,53.69
2022-12-04T11:11:13.336Z,54.21
2022-12-04T11:15:33.817Z,54.15
2022-12-04T11:20:25.762Z,53.99
2022-12-04T11:24:51.618Z,52.71
2022-12-04T11:29:01.469Z,53.08
2022-12-04T11:33:03.370Z,53.49
2022-12-04T11:37:04.373Z,53.35
2022-12-04T11:41:07.086Z,52.80
2022-12-04T11:45:26.453Z,54.83
2022-12-04T11:49:30.289Z,53.72
2022-12-04T11:53:48.288Z,53.42
2022-12-04T11:58:08.337Z,53.15
2022-12-04T12:03:02.256Z,53.88
2022-12-04T12:07:19.424Z,54.47
2022-12-04T12:11:29.073Z,54.86
2022-12-04T12:15:44.569Z,54.68
2022-12-04T12:20:13.523Z,54.11
2022-12-04T12:24:30.084Z,54.22
2022-12-04T12:29:02.995Z,53.54
2022-12-04T12:33:21.188Z,53.91
2022-12-04T12:37:37.600Z,53.97
2022-12-04T12:41:45.640Z,54.64
2022-12-04T12:45:56.783Z,55.15
2022-12-04T12:50:03.540Z,55.36
2022-12-04T12:54:20.484Z,55.18
2022-12-04T12:58:29.379Z,54.83
2022-12-04T13:02:38.380Z,54.34
2022-12-04T13:06:43.918Z,54.86
2022-12-04T13:10:52.751Z,55.02
2022-12-04T13:14:52.905Z,54.53
2022-12-04T13:19:04.454Z,55.10
2022-12-04T13:23:26.879Z,55.37
2022-12-04T13:27:48.079Z,55.99
2022-12-04T13:32:02.816Z,54.99
2022-12-04T13:36:36.741Z,56.10
2022-12-04T13:40:43.369Z,55.37
2022-12-04T13:44:46.354Z,55.22
2022-12-04T13:48:46.619Z,55.41
2022-12-04T13:52:49.248Z,56.11
2022-12-04T13:56:52.323Z,55.21
2022-12-04T14:01:06.280Z,55.71
2022-12-04T14:05:10.363Z,56.11
2022-12-04T14:09:24.385Z,55.62
2022-12-04T14:13:30.919Z,55.16
2022-12-04T14:17:37.947Z,55.44
2022-12-04T14:21:46.153Z,56.20
2022-12-04T14:25:46.741Z,55.86
2022-12-04T14:29:55.100Z,56.27
2022-12-04T14:34:02.662Z,56.23
2022-12-04T14:38:06.697Z,55.90
2022-12-04T14:42:17.311Z,55.63
2022-12-04T14:46:29.282Z,56.28
2022-12-04T14:50:46.206Z,56.11
2022-12-04T14:55:00.465Z,56.08
2022-12-04T14:59:07.743Z,56.29
2022-12-04T15:03:15.328Z,56.07
2022-12-04T15:07:23.309Z,56.29
2022-12-04T15:11:42.426Z,57.21
2022-12-04T15:15:48.897Z,56.99
2022-12-04T15:19:48.998Z,57.03
2022-12-04T15:23:53.006Z,56.44
2022-12-04T15:28:02.176Z,56.03
2022-12-04T15:32:08.628Z,55.70
2022-12-04T15:36:15.202Z,56.42
2022-12-04T15:40:26.828Z,57.09
2022-12-04T15:44:32.641Z,56.94
2022-12-04T15:48:34.569Z,56.72
2022-12-04T15:52:34.955Z,56.82
2022-12-04T15:56:37.655Z,56.90
2022-12-04T16:00:42.952Z,57.01
2022-12-04T16:04:45.562Z,57.08
2022-12-04T16:08:49.273Z,56.85
2022-12-04T16:12:56.671Z,56.43
2022-12-04T16:17:06.545Z,56.54
2022-12-04T16:21:07.281Z,56.45
2022-12-04T16:25:08.393Z,56.66
2022-12-04T16:29:12.536Z,56.81
2022-12-04T16:33:17.463Z,56.69
2022-12-04T16:37:21.075Z,56.12
2022-12-04T16:41:23.535Z,56.37
2022-12-04T16:45:32.840Z,56.82
2022-12-04T16:49:34.497Z,55.95
2022-12-04T16:53:34.689Z,55.94
2022-12-04T16:57:35.070Z,55.97
2022-12-04T17:01:44.060Z,56.25
2022-12-04T17:05:44.240Z,55.59
2022-12-04T17:09:44.595Z,56.53
2022-12-04T17:13:45.053Z,56.44
2022-12-04T17:17:47.824Z,56.98
2022-12-04T17:21:47.895Z,56.01
2022-12-04T17:25:47.992Z,56.31
2022-12-04T17:29:48.136Z,56.07
2022-12-04T17:33:51.739Z,55.89
2022-12-04T17:37:51.863Z,56.10
2022-12-04T17:41:51.929Z,55.64
2022-12-04T17:45:52.002Z,55.89
2022-12-04T17:49:55.180Z,56.96
2022-12-04T17:53:56.593Z,56.94
2022-12-04T17:57:57.100Z,57.95
2022-12-04T18:01:57.165Z,56.93
2022-12-04T18:06:00.836Z,57.73
2022-12-04T18:10:01.303Z,56.67
2022-12-04T18:14:11.520Z,56.97
2022-12-04T18:18:12.248Z,57.19
2022-12-04T18:22:15.070Z,57.07
2022-12-04T18:26:17.614Z,57.13
2022-12-04T18:30:18.292Z,57.58
2022-12-04T18:34:18.536Z,57.37
2022-12-04T18:38:21.267Z,57.30
2022-12-04T18:42:21.430Z,57.23
2022-12-04T18:46:23.094Z,57.68
2022-12-04T18:50:23.326Z,58.23
2022-12-04T18:54:26.972Z,58.09
2022-12-04T18:58:27.340Z,58.44
2022-12-04T19:02:27.830Z,58.59
2022-12-04T19:06:33.320Z,58.40
2022-12-04T19:10:36.308Z,58.21
2022-12-04T19:14:37.924Z,57.41
2022-12-04T19:18:39.384Z,57.29
2022-12-04T19:22:40.254Z,57.14
2022-12-04T19:26:43.865Z,57.45
2022-12-04T19:30:44.401Z,57.17
2022-12-04T19:34:44.663Z,57.46
2022-12-04T19:38:45.465Z,57.51
2022-12-04T19:42:48.470Z,57.51
2022-12-04T19:46:48.715Z,57.03
2022-12-04T19:50:48.898Z,57.38
2022-12-04T19:54:49.139Z,58.02
2022-12-04T19:58:51.871Z,56.85
2022-12-04T20:02:52.149Z,56.35
2022-12-04T20:06:53.266Z,56.40
2022-12-04T20:10:53.556Z,56.24
2022-12-04T20:14:56.303Z,56.16
2022-12-04T20:18:58.003Z,56.83
2022-12-04T20:22:58.927Z,56.63
2022-12-04T20:26:59.204Z,56.46
2022-12-04T20:31:03.308Z,56.13
2022-12-04T20:35:03.820Z,56.86
2022-12-04T20:39:04.105Z,56.78
2022-12-04T20:43:04.369Z,56.15
2022-12-04T20:47:07.091Z,56.02
2022-12-04T20:51:07.356Z,56.90
2022-12-04T20:55:10.435Z,56.29
2022-12-04T20:59:14.670Z,56.36
2022-12-04T21:03:17.898Z,56.71
2022-12-04T21:07:18.034Z,56.79
2022-12-04T21:11:18.329Z,56.35
2022-12-04T21:15:31.273Z,56.33
2022-12-04T21:19:34.062Z,56.12
2022-12-04T21:23:36.062Z,56.28
2022-12-04T21:27:36.255Z,56.56
2022-12-04T21:31:37.608Z,57.01
2022-12-04T21:35:42.723Z,56.30
2022-12-04T21:39:43.255Z,56.10
2022-12-04T21:43:43.782Z,56.54
2022-12-04T21:47:44.324Z,57.04
2022-12-04T21:52:02.842Z,57.55
2022-12-04T21:56:03.025Z,57.26
2022-12-04T22:00:04.172Z,57.72
2022-12-04T22:04:05.235Z,57.01
2022-12-04T22:08:08.456Z,57.29
2022-12-04T22:12:33.324Z,57.26
2022-12-04T22:16:31.067Z,56.49
2022-12-04T22:20:31.404Z,56.61
2022-12-04T22:24:34.250Z,56.60
2022-12-04T22:28:34.441Z,56.18
2022-12-04T22:32:34.615Z,55.67
2022-12-04T22:36:36.093Z,55.81
2022-12-04T22:40:40.696Z,56.44
2022-12-04T22:44:40.772Z,56.12
2022-12-04T22:48:42.691Z,56.23
2022-12-04T22:52:42.799Z,56.30
2022-12-04T22:56:46.094Z,56.13
2022-12-04T23:00:46.247Z,56.15
2022-12-04T23:04:46.356Z,56.10
2022-12-04T23:08:47.511Z,56.03
2022-12-04T23:12:50.234Z,56.33
2022-12-04T23:16:51.157Z,56.22
2022-12-04T23:20:51.398Z,56.62
2022-12-04T23:24:51.685Z,56.21
2022-12-04T23:28:55.123Z,56.82
2022-12-04T23:32:55.408Z,56.82
2022-12-04T23:36:55.540Z,56.39
2022-12-04T23:41:04.057Z,56.75
2022-12-04T23:45:07.982Z,56.49
2022-12-04T23:49:08.047Z,56.68
2022-12-04T23:53:08.224Z,56.70
2022-12-04T23:57:08.495Z,56.57
